sensor_id;sensor_type;location;lat;lon;timestamp;pressure;altitude;pressure_sealevel;temperature;humidity
83483;BME280;73420;32.678;-85.380;2023-11-19T00:02:24;98223.83;;;25.30;21.29
83483;BME280;73420;32.678;-85.380;2023-11-19T00:04:49;98229.33;;;25.14;21.49
83483;BME280;73420;32.678;-85.380;2023-11-19T00:07:15;98232.81;;;25.07;21.68
83483;BME280;73420;32.678;-85.380;2023-11-19T00:09:40;98235.59;;;24.94;21.47
83483;BME280;73420;32.678;-85.380;2023-11-19T00:12:11;98238.73;;;25.06;22.36
83483;BME280;73420;32.678;-85.380;2023-11-19T00:14:31;98241.08;;;25.06;22.62
83483;BME280;73420;32.678;-85.380;2023-11-19T00:16:56;98241.16;;;24.92;23.40
83483;BME280;73420;32.678;-85.380;2023-11-19T00:19:21;98247.68;;;24.72;22.60
83483;BME280;73420;32.678;-85.380;2023-11-19T00:21:47;98250.31;;;24.62;22.39
83483;BME280;73420;32.678;-85.380;2023-11-19T00:24:12;98251.39;;;24.49;21.74
83483;BME280;73420;32.678;-85.380;2023-11-19T00:26:38;98257.77;;;24.61;21.25
83483;BME280;73420;32.678;-85.380;2023-11-19T00:29:03;98257.38;;;24.65;20.86
83483;BME280;73420;32.678;-85.380;2023-11-19T00:31:28;98257.55;;;24.54;20.80
83483;BME280;73420;32.678;-85.380;2023-11-19T00:33:54;98257.74;;;24.57;20.67
83483;BME280;73420;32.678;-85.380;2023-11-19T00:36:20;98255.66;;;24.45;20.91
83483;BME280;73420;32.678;-85.380;2023-11-19T00:38:45;98255.31;;;24.65;20.56
83483;BME280;73420;32.678;-85.380;2023-11-19T00:41:11;98256.57;;;24.28;20.30
83483;BME280;73420;32.678;-85.380;2023-11-19T00:43:35;98254.91;;;24.12;20.57
83483;BME280;73420;32.678;-85.380;2023-11-19T00:46:02;98257.63;;;24.21;20.44
83483;BME280;73420;32.678;-85.380;2023-11-19T00:48:27;98261.25;;;24.22;20.02
83483;BME280;73420;32.678;-85.380;2023-11-19T00:50:52;98262.45;;;24.63;19.73
83483;BME280;73420;32.678;-85.380;2023-11-19T00:53:17;98265.76;;;24.28;19.73
83483;BME280;73420;32.678;-85.380;2023-11-19T00:55:43;98265.43;;;23.70;19.95
83483;BME280;73420;32.678;-85.380;2023-11-19T00:58:08;98266.31;;;24.28;19.96
83483;BME280;73420;32.678;-85.380;2023-11-19T01:00:34;98268.24;;;24.49;19.77
83483;BME280;73420;32.678;-85.380;2023-11-19T01:02:59;98271.80;;;23.69;20.12
83483;BME280;73420;32.678;-85.380;2023-11-19T01:05:25;98274.64;;;23.96;20.05
83483;BME280;73420;32.678;-85.380;2023-11-19T01:07:50;98277.54;;;24.08;20.02
83483;BME280;73420;32.678;-85.380;2023-11-19T01:10:16;98282.45;;;23.89;20.33
83483;BME280;73420;32.678;-85.380;2023-11-19T01:12:41;98282.98;;;24.01;20.49
83483;BME280;73420;32.678;-85.380;2023-11-19T01:15:07;98283.45;;;23.16;20.67
83483;BME280;73420;32.678;-85.380;2023-11-19T01:17:32;98282.99;;;23.65;20.55
83483;BME280;73420;32.678;-85.380;2023-11-19T01:19:58;98281.85;;;24.05;20.43
83483;BME280;73420;32.678;-85.380;2023-11-19T01:22:23;98284.11;;;23.92;20.26
83483;BME280;73420;32.678;-85.380;2023-11-19T01:24:49;98282.31;;;24.04;20.20
83483;BME280;73420;32.678;-85.380;2023-11-19T01:27:14;98285.32;;;23.92;20.26
83483;BME280;73420;32.678;-85.380;2023-11-19T01:29:39;98288.05;;;23.36;20.83
83483;BME280;73420;32.678;-85.380;2023-11-19T01:32:05;98291.08;;;23.01;21.19
83483;BME280;73420;32.678;-85.380;2023-11-19T01:34:30;98292.07;;;23.27;21.27
83483;BME280;73420;32.678;-85.380;2023-11-19T01:36:56;98294.39;;;23.05;21.11
83483;BME280;73420;32.678;-85.380;2023-11-19T01:39:21;98294.54;;;23.44;21.02
83483;BME280;73420;32.678;-85.380;2023-11-19T01:41:46;98295.88;;;23.03;20.97
83483;BME280;73420;32.678;-85.380;2023-11-19T01:44:12;98294.54;;;23.15;21.11
83483;BME280;73420;32.678;-85.380;2023-11-19T01:46:37;98298.36;;;23.17;21.10
83483;BME280;73420;32.678;-85.380;2023-11-19T01:49:03;98299.53;;;23.45;20.97
83483;BME280;73420;32.678;-85.380;2023-11-19T01:51:28;98299.92;;;23.37;21.43
83483;BME280;73420;32.678;-85.380;2023-11-19T01:53:54;98293.60;;;23.28;20.71
83483;BME280;73420;32.678;-85.380;2023-11-19T01:56:20;98295.34;;;23.39;20.78
83483;BME280;73420;32.678;-85.380;2023-11-19T01:58:45;98298.06;;;22.85;20.85
83483;BME280;73420;32.678;-85.380;2023-11-19T02:01:14;98297.08;;;23.05;20.95
83483;BME280;73420;32.678;-85.380;2023-11-19T02:03:35;98295.83;;;22.71;21.09
83483;BME280;73420;32.678;-85.380;2023-11-19T02:06:01;98294.19;;;23.17;20.85
83483;BME280;73420;32.678;-85.380;2023-11-19T02:08:26;98293.58;;;23.12;21.04
83483;BME280;73420;32.678;-85.380;2023-11-19T02:10:51;98291.23;;;23.40;20.86
83483;BME280;73420;32.678;-85.380;2023-11-19T02:13:17;98291.95;;;23.27;20.66
83483;BME280;73420;32.678;-85.380;2023-11-19T02:15:42;98293.44;;;22.89;20.73
83483;BME280;73420;32.678;-85.380;2023-11-19T02:18:18;98285.90;;;22.71;21.15
83483;BME280;73420;32.678;-85.380;2023-11-19T02:20:33;98284.48;;;22.20;21.49
83483;BME280;73420;32.678;-85.380;2023-11-19T02:22:59;98279.04;;;22.29;21.58
83483;BME280;73420;32.678;-85.380;2023-11-19T02:25:30;98282.31;;;22.68;21.15
83483;BME280;73420;32.678;-85.380;2023-11-19T02:27:53;98278.56;;;22.92;21.43
83483;BME280;73420;32.678;-85.380;2023-11-19T02:30:15;98277.59;;;22.58;21.53
83483;BME280;73420;32.678;-85.380;2023-11-19T02:32:41;98280.56;;;22.40;21.30
83483;BME280;73420;32.678;-85.380;2023-11-19T02:35:07;98287.65;;;22.79;21.25
83483;BME280;73420;32.678;-85.380;2023-11-19T02:37:32;98289.12;;;22.97;21.12
83483;BME280;73420;32.678;-85.380;2023-11-19T02:39:57;98290.86;;;22.71;21.22
83483;BME280;73420;32.678;-85.380;2023-11-19T02:42:22;98291.76;;;22.88;21.13
83483;BME280;73420;32.678;-85.380;2023-11-19T02:44:48;98290.78;;;22.36;21.39
83483;BME280;73420;32.678;-85.380;2023-11-19T02:47:13;98294.44;;;22.21;21.52
83483;BME280;73420;32.678;-85.380;2023-11-19T02:49:39;98294.07;;;22.13;21.73
83483;BME280;73420;32.678;-85.380;2023-11-19T02:52:05;98288.03;;;22.59;21.36
83483;BME280;73420;32.678;-85.380;2023-11-19T02:54:29;98292.42;;;22.23;21.55
83483;BME280;73420;32.678;-85.380;2023-11-19T02:56:55;98297.85;;;21.76;22.07
83483;BME280;73420;32.678;-85.380;2023-11-19T02:59:20;98301.94;;;21.52;22.11
83483;BME280;73420;32.678;-85.380;2023-11-19T03:01:46;98303.04;;;21.48;22.12
83483;BME280;73420;32.678;-85.380;2023-11-19T03:04:11;98305.98;;;22.04;22.12
83483;BME280;73420;32.678;-85.380;2023-11-19T03:06:37;98308.74;;;22.17;22.01
83483;BME280;73420;32.678;-85.380;2023-11-19T03:09:02;98307.83;;;21.90;22.13
83483;BME280;73420;32.678;-85.380;2023-11-19T03:11:28;98305.97;;;21.80;22.28
83483;BME280;73420;32.678;-85.380;2023-11-19T03:13:54;98308.98;;;21.78;22.34
83483;BME280;73420;32.678;-85.380;2023-11-19T03:16:19;98309.63;;;21.97;22.00
83483;BME280;73420;32.678;-85.380;2023-11-19T03:18:44;98311.38;;;21.81;22.01
83483;BME280;73420;32.678;-85.380;2023-11-19T03:21:09;98303.85;;;21.98;22.16
83483;BME280;73420;32.678;-85.380;2023-11-19T03:23:35;98297.05;;;21.69;22.06
83483;BME280;73420;32.678;-85.380;2023-11-19T03:26:02;98294.81;;;22.36;22.07
83483;BME280;73420;32.678;-85.380;2023-11-19T03:28:26;98296.50;;;22.25;21.96
83483;BME280;73420;32.678;-85.380;2023-11-19T03:30:51;98297.96;;;22.03;22.09
83483;BME280;73420;32.678;-85.380;2023-11-19T03:33:17;98295.01;;;22.16;22.10
83483;BME280;73420;32.678;-85.380;2023-11-19T03:35:42;98291.85;;;21.92;22.21
83483;BME280;73420;32.678;-85.380;2023-11-19T03:38:08;98293.19;;;21.75;22.28
83483;BME280;73420;32.678;-85.380;2023-11-19T03:40:33;98293.30;;;21.81;22.34
83483;BME280;73420;32.678;-85.380;2023-11-19T03:42:59;98295.98;;;21.83;22.37
83483;BME280;73420;32.678;-85.380;2023-11-19T03:45:24;98299.15;;;21.60;22.29
83483;BME280;73420;32.678;-85.380;2023-11-19T03:47:49;98305.10;;;22.26;22.24
83483;BME280;73420;32.678;-85.380;2023-11-19T03:50:21;98303.94;;;21.84;22.26
83483;BME280;73420;32.678;-85.380;2023-11-19T03:52:41;98307.56;;;21.63;22.49
83483;BME280;73420;32.678;-85.380;2023-11-19T03:55:07;98306.84;;;21.63;22.50
83483;BME280;73420;32.678;-85.380;2023-11-19T03:57:31;98309.78;;;21.40;22.67
83483;BME280;73420;32.678;-85.380;2023-11-19T03:59:57;98314.57;;;21.56;22.49
83483;BME280;73420;32.678;-85.380;2023-11-19T04:02:23;98316.15;;;21.70;22.42
83483;BME280;73420;32.678;-85.380;2023-11-19T04:04:48;98313.65;;;21.50;22.64
83483;BME280;73420;32.678;-85.380;2023-11-19T04:07:13;98311.77;;;21.38;22.64
83483;BME280;73420;32.678;-85.380;2023-11-19T04:09:39;98311.74;;;21.29;22.72
83483;BME280;73420;32.678;-85.380;2023-11-19T04:12:05;98311.53;;;21.38;22.80
83483;BME280;73420;32.678;-85.380;2023-11-19T04:14:30;98312.00;;;21.21;22.78
83483;BME280;73420;32.678;-85.380;2023-11-19T04:16:55;98313.95;;;21.19;22.71
83483;BME280;73420;32.678;-85.380;2023-11-19T04:19:21;98309.87;;;21.34;22.72
83483;BME280;73420;32.678;-85.380;2023-11-19T04:21:46;98308.94;;;21.59;22.54
83483;BME280;73420;32.678;-85.380;2023-11-19T04:24:12;98308.85;;;21.70;22.69
83483;BME280;73420;32.678;-85.380;2023-11-19T04:26:41;98306.34;;;21.20;22.73
83483;BME280;73420;32.678;-85.380;2023-11-19T04:29:03;98301.84;;;21.54;22.58
83483;BME280;73420;32.678;-85.380;2023-11-19T04:31:29;98300.12;;;21.52;22.66
83483;BME280;73420;32.678;-85.380;2023-11-19T04:33:54;98294.06;;;21.52;22.85
83483;BME280;73420;32.678;-85.380;2023-11-19T04:36:19;98286.31;;;21.37;23.33
83483;BME280;73420;32.678;-85.380;2023-11-19T04:38:50;98284.15;;;21.32;22.96
83483;BME280;73420;32.678;-85.380;2023-11-19T04:41:10;98282.66;;;20.97;23.06
83483;BME280;73420;32.678;-85.380;2023-11-19T04:43:36;98284.30;;;21.04;23.04
83483;BME280;73420;32.678;-85.380;2023-11-19T04:46:04;98278.88;;;21.35;22.87
83483;BME280;73420;32.678;-85.380;2023-11-19T04:48:27;98276.13;;;20.71;23.02
83483;BME280;73420;32.678;-85.380;2023-11-19T04:50:53;98280.43;;;21.39;22.93
83483;BME280;73420;32.678;-85.380;2023-11-19T04:53:19;98285.65;;;21.26;23.15
83483;BME280;73420;32.678;-85.380;2023-11-19T04:55:44;98287.26;;;21.21;23.07
83483;BME280;73420;32.678;-85.380;2023-11-19T04:58:09;98286.64;;;21.24;23.00
83483;BME280;73420;32.678;-85.380;2023-11-19T05:00:35;98283.24;;;20.97;23.07
83483;BME280;73420;32.678;-85.380;2023-11-19T05:03:01;98280.68;;;20.61;23.20
83483;BME280;73420;32.678;-85.380;2023-11-19T05:05:26;98283.82;;;21.08;23.31
83483;BME280;73420;32.678;-85.380;2023-11-19T05:07:51;98289.95;;;20.94;23.34
83483;BME280;73420;32.678;-85.380;2023-11-19T05:10:17;98293.63;;;20.93;23.29
83483;BME280;73420;32.678;-85.380;2023-11-19T05:12:43;98296.90;;;20.73;23.46
83483;BME280;73420;32.678;-85.380;2023-11-19T05:15:09;98296.49;;;20.63;23.58
83483;BME280;73420;32.678;-85.380;2023-11-19T05:17:34;98299.26;;;20.50;23.38
83483;BME280;73420;32.678;-85.380;2023-11-19T05:19:59;98301.24;;;20.70;23.60
83483;BME280;73420;32.678;-85.380;2023-11-19T05:22:25;98307.69;;;20.86;23.59
83483;BME280;73420;32.678;-85.380;2023-11-19T05:24:50;98315.22;;;20.58;23.53
83483;BME280;73420;32.678;-85.380;2023-11-19T05:27:16;98320.51;;;20.64;23.53
83483;BME280;73420;32.678;-85.380;2023-11-19T05:29:41;98323.80;;;20.45;23.88
83483;BME280;73420;32.678;-85.380;2023-11-19T05:32:06;98327.28;;;20.37;23.87
83483;BME280;73420;32.678;-85.380;2023-11-19T05:34:32;98324.07;;;20.32;23.96
83483;BME280;73420;32.678;-85.380;2023-11-19T05:36:57;98324.16;;;20.33;23.87
83483;BME280;73420;32.678;-85.380;2023-11-19T05:39:23;98322.74;;;20.41;23.71
83483;BME280;73420;32.678;-85.380;2023-11-19T05:41:48;98319.42;;;20.59;23.80
83483;BME280;73420;32.678;-85.380;2023-11-19T05:44:14;98312.45;;;20.33;23.80
83483;BME280;73420;32.678;-85.380;2023-11-19T05:46:39;98308.50;;;20.42;23.74
83483;BME280;73420;32.678;-85.380;2023-11-19T05:49:05;98309.25;;;20.50;23.63
83483;BME280;73420;32.678;-85.380;2023-11-19T05:51:31;98314.60;;;20.48;23.92
83483;BME280;73420;32.678;-85.380;2023-11-19T05:53:56;98319.11;;;20.77;23.68
83483;BME280;73420;32.678;-85.380;2023-11-19T05:56:21;98319.91;;;20.30;23.83
83483;BME280;73420;32.678;-85.380;2023-11-19T05:58:47;98317.80;;;20.16;23.70
83483;BME280;73420;32.678;-85.380;2023-11-19T06:01:12;98315.25;;;20.58;23.53
83483;BME280;73420;32.678;-85.380;2023-11-19T06:03:38;98314.18;;;20.35;23.70
83483;BME280;73420;32.678;-85.380;2023-11-19T06:06:03;98313.53;;;20.35;23.72
83483;BME280;73420;32.678;-85.380;2023-11-19T06:08:28;98312.88;;;20.53;23.81
83483;BME280;73420;32.678;-85.380;2023-11-19T06:10:54;98310.56;;;20.21;23.90
83483;BME280;73420;32.678;-85.380;2023-11-19T06:13:19;98311.19;;;20.52;23.94
83483;BME280;73420;32.678;-85.380;2023-11-19T06:15:45;98311.46;;;19.94;24.06
83483;BME280;73420;32.678;-85.380;2023-11-19T06:18:11;98314.34;;;20.34;24.09
83483;BME280;73420;32.678;-85.380;2023-11-19T06:20:36;98314.17;;;19.92;24.37
83483;BME280;73420;32.678;-85.380;2023-11-19T06:23:02;98313.34;;;19.89;24.32
83483;BME280;73420;32.678;-85.380;2023-11-19T06:25:27;98314.27;;;20.01;24.18
83483;BME280;73420;32.678;-85.380;2023-11-19T06:27:53;98308.65;;;20.00;24.14
83483;BME280;73420;32.678;-85.380;2023-11-19T06:30:19;98303.56;;;20.04;23.97
83483;BME280;73420;32.678;-85.380;2023-11-19T06:32:44;98300.76;;;19.98;24.11
83483;BME280;73420;32.678;-85.380;2023-11-19T06:35:10;98303.59;;;20.03;24.24
83483;BME280;73420;32.678;-85.380;2023-11-19T06:37:35;98299.45;;;19.80;24.09
83483;BME280;73420;32.678;-85.380;2023-11-19T06:40:03;98296.08;;;19.82;24.11
83483;BME280;73420;32.678;-85.380;2023-11-19T06:42:26;98287.98;;;19.70;24.14
83483;BME280;73420;32.678;-85.380;2023-11-19T06:44:51;98283.94;;;20.19;24.15
83483;BME280;73420;32.678;-85.380;2023-11-19T06:47:17;98282.46;;;19.91;24.17
83483;BME280;73420;32.678;-85.380;2023-11-19T06:49:44;98283.85;;;19.75;24.01
83483;BME280;73420;32.678;-85.380;2023-11-19T06:52:08;98281.61;;;20.11;24.18
83483;BME280;73420;32.678;-85.380;2023-11-19T06:54:34;98284.85;;;20.04;24.28
83483;BME280;73420;32.678;-85.380;2023-11-19T06:56:59;98276.64;;;20.05;24.26
83483;BME280;73420;32.678;-85.380;2023-11-19T06:59:25;98279.33;;;20.15;24.06
83483;BME280;73420;32.678;-85.380;2023-11-19T07:01:50;98278.64;;;20.17;24.11
83483;BME280;73420;32.678;-85.380;2023-11-19T07:04:16;98272.89;;;19.87;24.28
83483;BME280;73420;32.678;-85.380;2023-11-19T07:06:42;98273.30;;;20.06;24.31
83483;BME280;73420;32.678;-85.380;2023-11-19T07:09:08;98275.14;;;19.63;24.55
83483;BME280;73420;32.678;-85.380;2023-11-19T07:11:32;98276.29;;;19.96;24.47
83483;BME280;73420;32.678;-85.380;2023-11-19T07:13:58;98279.60;;;19.88;24.45
83483;BME280;73420;32.678;-85.380;2023-11-19T07:16:24;98284.20;;;19.78;24.54
83483;BME280;73420;32.678;-85.380;2023-11-19T07:18:49;98285.46;;;19.70;24.68
83483;BME280;73420;32.678;-85.380;2023-11-19T07:21:14;98280.21;;;19.65;24.65
83483;BME280;73420;32.678;-85.380;2023-11-19T07:23:40;98279.14;;;19.63;24.60
83483;BME280;73420;32.678;-85.380;2023-11-19T07:26:06;98277.18;;;19.88;24.79
83483;BME280;73420;32.678;-85.380;2023-11-19T07:28:32;98278.97;;;19.57;24.78
83483;BME280;73420;32.678;-85.380;2023-11-19T07:30:57;98283.86;;;19.53;24.74
83483;BME280;73420;32.678;-85.380;2023-11-19T07:33:22;98283.96;;;19.63;24.77
83483;BME280;73420;32.678;-85.380;2023-11-19T07:35:47;98283.92;;;19.65;24.75
83483;BME280;73420;32.678;-85.380;2023-11-19T07:38:13;98284.42;;;19.52;25.02
83483;BME280;73420;32.678;-85.380;2023-11-19T07:40:38;98285.14;;;19.56;24.90
83483;BME280;73420;32.678;-85.380;2023-11-19T07:43:04;98286.72;;;19.45;24.96
83483;BME280;73420;32.678;-85.380;2023-11-19T07:45:30;98287.48;;;19.64;24.82
83483;BME280;73420;32.678;-85.380;2023-11-19T07:47:55;98289.35;;;19.33;24.97
83483;BME280;73420;32.678;-85.380;2023-11-19T07:50:21;98291.77;;;19.93;24.81
83483;BME280;73420;32.678;-85.380;2023-11-19T07:52:46;98290.89;;;19.24;25.20
83483;BME280;73420;32.678;-85.380;2023-11-19T07:55:12;98291.00;;;19.09;25.23
83483;BME280;73420;32.678;-85.380;2023-11-19T07:57:37;98288.84;;;19.33;25.55
83483;BME280;73420;32.678;-85.380;2023-11-19T08:00:03;98289.06;;;19.21;25.52
83483;BME280;73420;32.678;-85.380;2023-11-19T08:02:28;98286.97;;;19.25;25.61
83483;BME280;73420;32.678;-85.380;2023-11-19T08:04:54;98284.77;;;19.22;25.67
83483;BME280;73420;32.678;-85.380;2023-11-19T08:07:19;98288.96;;;19.11;25.59
83483;BME280;73420;32.678;-85.380;2023-11-19T08:09:45;98299.76;;;18.91;25.78
83483;BME280;73420;32.678;-85.380;2023-11-19T08:12:10;98308.53;;;18.94;25.89
83483;BME280;73420;32.678;-85.380;2023-11-19T08:14:36;98311.27;;;18.80;25.99
83483;BME280;73420;32.678;-85.380;2023-11-19T08:17:03;98318.58;;;18.77;25.89
83483;BME280;73420;32.678;-85.380;2023-11-19T08:19:26;98324.85;;;18.88;25.80
83483;BME280;73420;32.678;-85.380;2023-11-19T08:21:52;98336.83;;;18.79;25.81
83483;BME280;73420;32.678;-85.380;2023-11-19T08:24:17;98332.45;;;18.79;25.85
83483;BME280;73420;32.678;-85.380;2023-11-19T08:26:42;98329.32;;;18.77;25.86
83483;BME280;73420;32.678;-85.380;2023-11-19T08:29:08;98324.43;;;18.82;25.86
83483;BME280;73420;32.678;-85.380;2023-11-19T08:31:33;98317.04;;;18.81;25.89
83483;BME280;73420;32.678;-85.380;2023-11-19T08:33:59;98310.77;;;18.79;25.90
83483;BME280;73420;32.678;-85.380;2023-11-19T08:36:24;98305.36;;;18.95;25.84
83483;BME280;73420;32.678;-85.380;2023-11-19T08:38:50;98302.74;;;18.48;25.87
83483;BME280;73420;32.678;-85.380;2023-11-19T08:41:16;98300.07;;;18.69;25.80
83483;BME280;73420;32.678;-85.380;2023-11-19T08:43:41;98301.00;;;18.58;25.69
83483;BME280;73420;32.678;-85.380;2023-11-19T08:46:10;98300.41;;;18.96;25.61
83483;BME280;73420;32.678;-85.380;2023-11-19T08:48:31;98304.56;;;18.93;25.52
83483;BME280;73420;32.678;-85.380;2023-11-19T08:50:57;98313.00;;;18.54;25.76
83483;BME280;73420;32.678;-85.380;2023-11-19T08:53:23;98318.15;;;18.49;26.21
83483;BME280;73420;32.678;-85.380;2023-11-19T08:55:48;98312.57;;;18.40;26.29
83483;BME280;73420;32.678;-85.380;2023-11-19T08:58:13;98304.25;;;18.40;26.16
83483;BME280;73420;32.678;-85.380;2023-11-19T09:00:39;98304.71;;;18.38;26.09
83483;BME280;73420;32.678;-85.380;2023-11-19T09:03:04;98309.80;;;18.36;26.11
83483;BME280;73420;32.678;-85.380;2023-11-19T09:05:30;98308.58;;;18.35;26.04
83483;BME280;73420;32.678;-85.380;2023-11-19T09:07:55;98307.00;;;18.74;26.15
83483;BME280;73420;32.678;-85.380;2023-11-19T09:10:21;98307.10;;;18.11;26.36
83483;BME280;73420;32.678;-85.380;2023-11-19T09:12:46;98306.19;;;18.18;26.55
83483;BME280;73420;32.678;-85.380;2023-11-19T09:15:12;98302.41;;;18.18;26.51
83483;BME280;73420;32.678;-85.380;2023-11-19T09:17:37;98301.74;;;18.16;26.34
83483;BME280;73420;32.678;-85.380;2023-11-19T09:20:03;98300.39;;;18.22;26.25
83483;BME280;73420;32.678;-85.380;2023-11-19T09:22:28;98302.25;;;18.23;26.14
83483;BME280;73420;32.678;-85.380;2023-11-19T09:24:53;98302.13;;;18.14;26.35
83483;BME280;73420;32.678;-85.380;2023-11-19T09:27:19;98301.13;;;18.62;26.29
83483;BME280;73420;32.678;-85.380;2023-11-19T09:29:44;98300.14;;;18.15;26.24
83483;BME280;73420;32.678;-85.380;2023-11-19T09:32:10;98306.54;;;18.13;26.17
83483;BME280;73420;32.678;-85.380;2023-11-19T09:34:35;98313.85;;;17.97;26.47
83483;BME280;73420;32.678;-85.380;2023-11-19T09:37:01;98314.16;;;18.28;26.65
83483;BME280;73420;32.678;-85.380;2023-11-19T09:39:26;98315.51;;;18.23;26.75
83483;BME280;73420;32.678;-85.380;2023-11-19T09:41:51;98316.89;;;18.27;26.60
83483;BME280;73420;32.678;-85.380;2023-11-19T09:44:16;98322.65;;;17.79;26.61
83483;BME280;73420;32.678;-85.380;2023-11-19T09:46:42;98326.30;;;17.79;26.45
83483;BME280;73420;32.678;-85.380;2023-11-19T09:49:08;98323.51;;;18.15;26.99
83483;BME280;73420;32.678;-85.380;2023-11-19T09:51:33;98323.31;;;17.80;27.04
83483;BME280;73420;32.678;-85.380;2023-11-19T09:53:58;98329.16;;;17.69;27.21
83483;BME280;73420;32.678;-85.380;2023-11-19T09:56:24;98330.14;;;17.82;27.18
83483;BME280;73420;32.678;-85.380;2023-11-19T09:58:50;98335.38;;;17.61;27.37
83483;BME280;73420;32.678;-85.380;2023-11-19T10:01:15;98337.76;;;17.58;27.40
83483;BME280;73420;32.678;-85.380;2023-11-19T10:03:41;98337.00;;;17.56;27.36
83483;BME280;73420;32.678;-85.380;2023-11-19T10:06:07;98336.27;;;17.61;27.32
83483;BME280;73420;32.678;-85.380;2023-11-19T10:08:30;98338.69;;;17.63;27.16
83483;BME280;73420;32.678;-85.380;2023-11-19T10:10:56;98342.36;;;17.55;27.22
83483;BME280;73420;32.678;-85.380;2023-11-19T10:13:26;98338.15;;;17.57;27.54
83483;BME280;73420;32.678;-85.380;2023-11-19T10:15:47;98339.03;;;17.37;27.61
83483;BME280;73420;32.678;-85.380;2023-11-19T10:18:14;98338.05;;;16.81;27.53
83483;BME280;73420;32.678;-85.380;2023-11-19T10:20:41;98341.63;;;17.31;27.57
83483;BME280;73420;32.678;-85.380;2023-11-19T10:23:03;98340.31;;;17.34;27.55
83483;BME280;73420;32.678;-85.380;2023-11-19T10:25:29;98340.45;;;17.28;27.57
83483;BME280;73420;32.678;-85.380;2023-11-19T10:27:54;98337.16;;;17.40;27.74
83483;BME280;73420;32.678;-85.380;2023-11-19T10:30:20;98336.34;;;16.95;27.62
83483;BME280;73420;32.678;-85.380;2023-11-19T10:32:45;98336.53;;;17.20;27.62
83483;BME280;73420;32.678;-85.380;2023-11-19T10:35:11;98340.23;;;17.30;27.47
83483;BME280;73420;32.678;-85.380;2023-11-19T10:37:36;98336.60;;;17.39;27.83
83483;BME280;73420;32.678;-85.380;2023-11-19T10:40:07;98333.46;;;17.21;27.82
83483;BME280;73420;32.678;-85.380;2023-11-19T10:42:27;98334.65;;;17.06;28.07
83483;BME280;73420;32.678;-85.380;2023-11-19T10:44:52;98338.68;;;17.11;28.09
83483;BME280;73420;32.678;-85.380;2023-11-19T10:47:19;98338.90;;;16.79;28.05
83483;BME280;73420;32.678;-85.380;2023-11-19T10:49:43;98344.18;;;17.10;27.97
83483;BME280;73420;32.678;-85.380;2023-11-19T10:52:09;98349.24;;;17.12;27.89
83483;BME280;73420;32.678;-85.380;2023-11-19T10:54:34;98359.49;;;17.14;27.81
83483;BME280;73420;32.678;-85.380;2023-11-19T10:56:59;98365.19;;;17.19;27.80
83483;BME280;73420;32.678;-85.380;2023-11-19T10:59:25;98367.72;;;16.91;27.70
83483;BME280;73420;32.678;-85.380;2023-11-19T11:01:53;98370.18;;;16.95;27.68
83483;BME280;73420;32.678;-85.380;2023-11-19T11:04:22;98374.90;;;17.02;27.58
83483;BME280;73420;32.678;-85.380;2023-11-19T11:06:41;98376.52;;;17.07;27.73
83483;BME280;73420;32.678;-85.380;2023-11-19T11:09:07;98376.08;;;16.95;27.52
83483;BME280;73420;32.678;-85.380;2023-11-19T11:11:32;98377.95;;;16.86;27.55
83483;BME280;73420;32.678;-85.380;2023-11-19T11:13:59;98379.20;;;17.10;27.55
83483;BME280;73420;32.678;-85.380;2023-11-19T11:16:24;98385.56;;;16.94;27.41
83483;BME280;73420;32.678;-85.380;2023-11-19T11:18:49;98388.31;;;17.25;27.37
83483;BME280;73420;32.678;-85.380;2023-11-19T11:21:16;98387.60;;;16.91;27.67
83483;BME280;73420;32.678;-85.380;2023-11-19T11:24:02;98389.06;;;17.40;27.43
83483;BME280;73420;32.678;-85.380;2023-11-19T11:26:18;98390.50;;;17.14;27.40
83483;BME280;73420;32.678;-85.380;2023-11-19T11:28:35;98394.41;;;16.86;27.50
83483;BME280;73420;32.678;-85.380;2023-11-19T11:31:08;98393.02;;;16.72;27.78
83483;BME280;73420;32.678;-85.380;2023-11-19T11:33:34;98391.79;;;16.69;27.68
83483;BME280;73420;32.678;-85.380;2023-11-19T11:35:52;98393.07;;;16.81;28.02
83483;BME280;73420;32.678;-85.380;2023-11-19T11:38:11;98394.73;;;16.82;28.01
83483;BME280;73420;32.678;-85.380;2023-11-19T11:40:36;98394.90;;;16.98;27.73
83483;BME280;73420;32.678;-85.380;2023-11-19T11:43:02;98392.59;;;17.08;27.83
83483;BME280;73420;32.678;-85.380;2023-11-19T11:45:37;98392.49;;;16.93;28.00
83483;BME280;73420;32.678;-85.380;2023-11-19T11:48:05;98391.75;;;16.43;28.01
83483;BME280;73420;32.678;-85.380;2023-11-19T11:50:18;98390.99;;;16.49;27.94
83483;BME280;73420;32.678;-85.380;2023-11-19T11:55:09;98395.73;;;16.58;28.54
83483;BME280;73420;32.678;-85.380;2023-11-19T11:57:36;98393.87;;;16.49;28.17
83483;BME280;73420;32.678;-85.380;2023-11-19T12:00:02;98394.28;;;16.87;28.08
83483;BME280;73420;32.678;-85.380;2023-11-19T12:02:25;98396.23;;;16.89;28.20
83483;BME280;73420;32.678;-85.380;2023-11-19T12:04:51;98396.52;;;16.76;28.19
83483;BME280;73420;32.678;-85.380;2023-11-19T12:07:17;98395.35;;;16.82;27.91
83483;BME280;73420;32.678;-85.380;2023-11-19T12:09:41;98391.35;;;16.07;28.14
83483;BME280;73420;32.678;-85.380;2023-11-19T12:12:13;98390.89;;;16.75;28.12
83483;BME280;73420;32.678;-85.380;2023-11-19T12:17:04;98392.35;;;17.00;27.80
83483;BME280;73420;32.678;-85.380;2023-11-19T12:19:22;98398.32;;;16.96;27.74
83483;BME280;73420;32.678;-85.380;2023-11-19T12:21:48;98403.30;;;16.49;27.94
83483;BME280;73420;32.678;-85.380;2023-11-19T12:24:14;98409.13;;;16.59;28.15
83483;BME280;73420;32.678;-85.380;2023-11-19T12:26:40;98408.79;;;16.38;28.20
83483;BME280;73420;32.678;-85.380;2023-11-19T12:29:05;98409.85;;;16.47;28.19
83483;BME280;73420;32.678;-85.380;2023-11-19T12:31:30;98412.39;;;16.50;27.87
83483;BME280;73420;32.678;-85.380;2023-11-19T12:33:55;98417.21;;;16.93;27.75
83483;BME280;73420;32.678;-85.380;2023-11-19T12:36:20;98420.78;;;16.44;27.82